sensor_id;sensor_type;location;lat;lon;timestamp;P1;durP1;ratioP1;P2;durP2;ratioP2
25917;SDS011;13899;51.174;4.456;2022-12-18T00:00:44;127.90;;;46.78;;
25917;SDS011;13899;51.174;4.456;2022-12-18T00:03:12;122.05;;;43.65;;
25917;SDS011;13899;51.174;4.456;2022-12-18T00:08:11;125.53;;;44.65;;
25917;SDS011;13899;51.174;4.456;2022-12-18T00:10:36;134.77;;;44.80;;
25917;SDS011;13899;51.174;4.456;2022-12-18T00:13:02;90.87;;;32.70;;
25917;SDS011;13899;51.174;4.456;2022-12-18T00:15:27;133.23;;;46.47;;
25917;SDS011;13899;51.174;4.456;2022-12-18T00:17:53;113.83;;;37.00;;
25917;SDS011;13899;51.174;4.456;2022-12-18T00:20:18;135.73;;;49.40;;
25917;SDS011;13899;51.174;4.456;2022-12-18T00:22:50;136.90;;;47.63;;
25917;SDS011;13899;51.174;4.456;2022-12-18T00:25:16;136.02;;;46.20;;
25917;SDS011;13899;51.174;4.456;2022-12-18T00:27:42;134.03;;;47.10;;
25917;SDS011;13899;51.174;4.456;2022-12-18T00:30:08;104.20;;;37.20;;
25917;SDS011;13899;51.174;4.456;2022-12-18T00:32:34;129.20;;;45.72;;
25917;SDS011;13899;51.174;4.456;2022-12-18T00:34:59;122.53;;;45.43;;
25917;SDS011;13899;51.174;4.456;2022-12-18T00:37:25;98.30;;;34.47;;
25917;SDS011;13899;51.174;4.456;2022-12-18T00:39:50;106.83;;;39.20;;
25917;SDS011;13899;51.174;4.456;2022-12-18T00:42:16;106.00;;;34.67;;
25917;SDS011;13899;51.174;4.456;2022-12-18T00:45:00;138.60;;;49.38;;
25917;SDS011;13899;51.174;4.456;2022-12-18T00:47:25;102.37;;;38.70;;
25917;SDS011;13899;51.174;4.456;2022-12-18T00:49:51;136.73;;;48.80;;
25917;SDS011;13899;51.174;4.456;2022-12-18T00:52:16;130.10;;;47.20;;
25917;SDS011;13899;51.174;4.456;2022-12-18T00:54:42;139.57;;;49.63;;
25917;SDS011;13899;51.174;4.456;2022-12-18T00:57:08;132.93;;;47.70;;
25917;SDS011;13899;51.174;4.456;2022-12-18T00:59:33;135.80;;;47.67;;
25917;SDS011;13899;51.174;4.456;2022-12-18T01:01:59;104.57;;;39.90;;
25917;SDS011;13899;51.174;4.456;2022-12-18T01:04:24;101.13;;;36.87;;
25917;SDS011;13899;51.174;4.456;2022-12-18T01:06:50;136.90;;;49.27;;
25917;SDS011;13899;51.174;4.456;2022-12-18T01:09:15;134.93;;;48.50;;
25917;SDS011;13899;51.174;4.456;2022-12-18T01:11:41;107.43;;;38.37;;
25917;SDS011;13899;51.174;4.456;2022-12-18T01:14:06;105.50;;;35.37;;
25917;SDS011;13899;51.174;4.456;2022-12-18T01:16:32;101.70;;;36.60;;
25917;SDS011;13899;51.174;4.456;2022-12-18T01:18:58;136.37;;;48.47;;
25917;SDS011;13899;51.174;4.456;2022-12-18T01:21:23;140.07;;;49.50;;
25917;SDS011;13899;51.174;4.456;2022-12-18T01:23:53;107.93;;;37.50;;
25917;SDS011;13899;51.174;4.456;2022-12-18T01:26:20;141.50;;;50.67;;
25917;SDS011;13899;51.174;4.456;2022-12-18T01:28:45;106.85;;;38.92;;
25917;SDS011;13899;51.174;4.456;2022-12-18T01:33:47;134.25;;;48.58;;
25917;SDS011;13899;51.174;4.456;2022-12-18T01:36:17;104.13;;;36.20;;
25917;SDS011;13899;51.174;4.456;2022-12-18T01:38:43;133.05;;;46.35;;
25917;SDS011;13899;51.174;4.456;2022-12-18T01:41:09;103.25;;;37.47;;
25917;SDS011;13899;51.174;4.456;2022-12-18T01:43:47;98.40;;;35.33;;
25917;SDS011;13899;51.174;4.456;2022-12-18T01:46:21;132.13;;;45.72;;
25917;SDS011;13899;51.174;4.456;2022-12-18T01:48:48;132.98;;;45.85;;
25917;SDS011;13899;51.174;4.456;2022-12-18T01:51:15;131.85;;;47.85;;
25917;SDS011;13899;51.174;4.456;2022-12-18T01:53:41;105.13;;;35.53;;
25917;SDS011;13899;51.174;4.456;2022-12-18T01:56:10;125.72;;;44.55;;
25917;SDS011;13899;51.174;4.456;2022-12-18T01:58:41;123.38;;;47.10;;
25917;SDS011;13899;51.174;4.456;2022-12-18T02:01:15;129.18;;;45.42;;
25917;SDS011;13899;51.174;4.456;2022-12-18T02:03:41;96.17;;;36.00;;
25917;SDS011;13899;51.174;4.456;2022-12-18T02:08:57;141.82;;;48.28;;
25917;SDS011;13899;51.174;4.456;2022-12-18T02:11:39;120.68;;;45.40;;
25917;SDS011;13899;51.174;4.456;2022-12-18T02:14:26;134.95;;;47.25;;
25917;SDS011;13899;51.174;4.456;2022-12-18T02:17:21;127.15;;;46.63;;
25917;SDS011;13899;51.174;4.456;2022-12-18T02:31:25;122.25;;;44.80;;
25917;SDS011;13899;51.174;4.456;2022-12-18T02:33:53;111.00;;;43.20;;
25917;SDS011;13899;51.174;4.456;2022-12-18T02:36:23;124.93;;;44.03;;
25917;SDS011;13899;51.174;4.456;2022-12-18T02:38:51;114.68;;;41.40;;
25917;SDS011;13899;51.174;4.456;2022-12-18T02:41:18;102.70;;;40.30;;
25917;SDS011;13899;51.174;4.456;2022-12-18T02:43:48;80.50;;;30.35;;
25917;SDS011;13899;51.174;4.456;2022-12-18T02:48:57;97.80;;;38.30;;
25917;SDS011;13899;51.174;4.456;2022-12-18T02:51:40;99.22;;;38.70;;
25917;SDS011;13899;51.174;4.456;2022-12-18T02:54:36;95.35;;;38.65;;
25917;SDS011;13899;51.174;4.456;2022-12-18T02:57:14;96.03;;;38.05;;
25917;SDS011;13899;51.174;4.456;2022-12-18T03:00:04;99.53;;;38.67;;
25917;SDS011;13899;51.174;4.456;2022-12-18T03:02:38;96.88;;;38.72;;
25917;SDS011;13899;51.174;4.456;2022-12-18T03:05:38;92.38;;;37.08;;
25917;SDS011;13899;51.174;4.456;2022-12-18T03:08:07;88.85;;;34.95;;
25917;SDS011;13899;51.174;4.456;2022-12-18T03:10:36;93.60;;;38.30;;
25917;SDS011;13899;51.174;4.456;2022-12-18T03:13:09;91.90;;;37.35;;
25917;SDS011;13899;51.174;4.456;2022-12-18T03:15:48;90.22;;;36.25;;
25917;SDS011;13899;51.174;4.456;2022-12-18T03:18:21;84.10;;;35.97;;
25917;SDS011;13899;51.174;4.456;2022-12-18T03:20:50;91.90;;;35.80;;
25917;SDS011;13899;51.174;4.456;2022-12-18T03:23:20;99.43;;;36.95;;
25917;SDS011;13899;51.174;4.456;2022-12-18T03:25:50;82.80;;;35.17;;
25917;SDS011;13899;51.174;4.456;2022-12-18T03:28:20;83.70;;;35.33;;
25917;SDS011;13899;51.174;4.456;2022-12-18T03:30:47;82.68;;;35.28;;
25917;SDS011;13899;51.174;4.456;2022-12-18T03:36:37;88.40;;;33.55;;
25917;SDS011;13899;51.174;4.456;2022-12-18T03:39:03;62.70;;;25.47;;
25917;SDS011;13899;51.174;4.456;2022-12-18T03:41:31;85.77;;;33.17;;
25917;SDS011;13899;51.174;4.456;2022-12-18T03:44:13;71.80;;;32.08;;
25917;SDS011;13899;51.174;4.456;2022-12-18T03:52:18;88.18;;;32.50;;
25917;SDS011;13899;51.174;4.456;2022-12-18T03:55:07;88.30;;;32.95;;
25917;SDS011;13899;51.174;4.456;2022-12-18T03:57:35;76.00;;;32.50;;
25917;SDS011;13899;51.174;4.456;2022-12-18T04:00:13;76.88;;;31.73;;
25917;SDS011;13899;51.174;4.456;2022-12-18T04:02:50;78.25;;;32.63;;
25917;SDS011;13899;51.174;4.456;2022-12-18T04:05:18;78.40;;;32.92;;
25917;SDS011;13899;51.174;4.456;2022-12-18T04:07:45;79.65;;;33.00;;
25917;SDS011;13899;51.174;4.456;2022-12-18T04:10:13;80.57;;;33.03;;
25917;SDS011;13899;51.174;4.456;2022-12-18T04:12:40;86.50;;;34.65;;
25917;SDS011;13899;51.174;4.456;2022-12-18T04:15:07;81.20;;;32.38;;
25917;SDS011;13899;51.174;4.456;2022-12-18T04:17:33;78.45;;;32.70;;
25917;SDS011;13899;51.174;4.456;2022-12-18T04:19:59;74.82;;;32.83;;
25917;SDS011;13899;51.174;4.456;2022-12-18T04:22:25;76.03;;;27.77;;
25917;SDS011;13899;51.174;4.456;2022-12-18T04:27:17;85.55;;;33.47;;
25917;SDS011;13899;51.174;4.456;2022-12-18T04:29:42;93.17;;;33.93;;
25917;SDS011;13899;51.174;4.456;2022-12-18T04:32:08;55.83;;;25.63;;
25917;SDS011;13899;51.174;4.456;2022-12-18T04:34:34;61.03;;;24.83;;
25917;SDS011;13899;51.174;4.456;2022-12-18T04:36:59;71.93;;;32.00;;
25917;SDS011;13899;51.174;4.456;2022-12-18T04:39:25;82.50;;;32.37;;
25917;SDS011;13899;51.174;4.456;2022-12-18T04:41:50;59.40;;;23.83;;
25917;SDS011;13899;51.174;4.456;2022-12-18T04:44:17;74.78;;;30.70;;
25917;SDS011;13899;51.174;4.456;2022-12-18T04:46:43;68.97;;;29.50;;
25917;SDS011;13899;51.174;4.456;2022-12-18T04:49:09;50.47;;;23.17;;
25917;SDS011;13899;51.174;4.456;2022-12-18T04:51:35;69.97;;;29.35;;
25917;SDS011;13899;51.174;4.456;2022-12-18T04:54:02;60.75;;;28.00;;
25917;SDS011;13899;51.174;4.456;2022-12-18T04:56:27;62.53;;;27.52;;
25917;SDS011;13899;51.174;4.456;2022-12-18T04:58:55;65.07;;;29.02;;
25917;SDS011;13899;51.174;4.456;2022-12-18T05:01:20;60.47;;;28.43;;
25917;SDS011;13899;51.174;4.456;2022-12-18T05:03:46;57.67;;;23.77;;
25917;SDS011;13899;51.174;4.456;2022-12-18T05:06:11;63.43;;;29.50;;
25917;SDS011;13899;51.174;4.456;2022-12-18T05:08:37;43.20;;;20.90;;
25917;SDS011;13899;51.174;4.456;2022-12-18T05:11:04;73.17;;;28.60;;
25917;SDS011;13899;51.174;4.456;2022-12-18T05:13:31;67.40;;;27.95;;
25917;SDS011;13899;51.174;4.456;2022-12-18T05:15:58;68.80;;;28.35;;
25917;SDS011;13899;51.174;4.456;2022-12-18T05:18:23;47.67;;;21.97;;
25917;SDS011;13899;51.174;4.456;2022-12-18T05:20:50;67.57;;;30.00;;
25917;SDS011;13899;51.174;4.456;2022-12-18T05:25:42;64.88;;;28.40;;
25917;SDS011;13899;51.174;4.456;2022-12-18T05:28:07;39.60;;;21.33;;
25917;SDS011;13899;51.174;4.456;2022-12-18T05:30:33;49.53;;;22.17;;
25917;SDS011;13899;51.174;4.456;2022-12-18T05:32:59;58.67;;;28.37;;
25917;SDS011;13899;51.174;4.456;2022-12-18T05:35:24;58.33;;;27.77;;
25917;SDS011;13899;51.174;4.456;2022-12-18T05:37:50;48.03;;;21.97;;
25917;SDS011;13899;51.174;4.456;2022-12-18T05:40:15;50.33;;;21.27;;
25917;SDS011;13899;51.174;4.456;2022-12-18T05:42:41;57.33;;;27.87;;
25917;SDS011;13899;51.174;4.456;2022-12-18T05:45:06;50.80;;;21.47;;
25917;SDS011;13899;51.174;4.456;2022-12-18T05:47:32;41.15;;;20.77;;
25917;SDS011;13899;51.174;4.456;2022-12-18T05:49:58;63.93;;;29.37;;
25917;SDS011;13899;51.174;4.456;2022-12-18T05:52:23;62.00;;;27.73;;
25917;SDS011;13899;51.174;4.456;2022-12-18T05:54:49;58.57;;;28.03;;
25917;SDS011;13899;51.174;4.456;2022-12-18T05:57:15;59.47;;;27.03;;
25917;SDS011;13899;51.174;4.456;2022-12-18T05:59:40;39.53;;;19.73;;
25917;SDS011;13899;51.174;4.456;2022-12-18T06:02:06;45.03;;;20.30;;
25917;SDS011;13899;51.174;4.456;2022-12-18T06:04:31;51.40;;;21.07;;
25917;SDS011;13899;51.174;4.456;2022-12-18T06:06:57;43.00;;;19.50;;
25917;SDS011;13899;51.174;4.456;2022-12-18T06:09:23;58.85;;;26.35;;
25917;SDS011;13899;51.174;4.456;2022-12-18T06:11:49;59.33;;;27.63;;
25917;SDS011;13899;51.174;4.456;2022-12-18T06:14:16;61.60;;;28.20;;
25917;SDS011;13899;51.174;4.456;2022-12-18T06:16:42;59.00;;;27.50;;
25917;SDS011;13899;51.174;4.456;2022-12-18T06:19:14;37.73;;;19.20;;
25917;SDS011;13899;51.174;4.456;2022-12-18T06:21:41;53.10;;;26.10;;
25917;SDS011;13899;51.174;4.456;2022-12-18T06:24:06;51.67;;;25.07;;
25917;SDS011;13899;51.174;4.456;2022-12-18T06:26:32;56.27;;;24.90;;
25917;SDS011;13899;51.174;4.456;2022-12-18T06:28:58;51.93;;;25.20;;
25917;SDS011;13899;51.174;4.456;2022-12-18T06:31:24;57.90;;;25.90;;
25917;SDS011;13899;51.174;4.456;2022-12-18T06:33:50;46.65;;;24.42;;
25917;SDS011;13899;51.174;4.456;2022-12-18T06:36:15;51.47;;;24.77;;
25917;SDS011;13899;51.174;4.456;2022-12-18T06:38:42;36.93;;;18.53;;
25917;SDS011;13899;51.174;4.456;2022-12-18T06:43:44;39.00;;;19.17;;
25917;SDS011;13899;51.174;4.456;2022-12-18T06:46:10;40.10;;;20.70;;
25917;SDS011;13899;51.174;4.456;2022-12-18T06:48:36;50.20;;;23.88;;
25917;SDS011;13899;51.174;4.456;2022-12-18T06:51:02;47.93;;;24.43;;
25917;SDS011;13899;51.174;4.456;2022-12-18T06:53:28;49.38;;;23.95;;
25917;SDS011;13899;51.174;4.456;2022-12-18T06:56:04;47.92;;;23.83;;
25917;SDS011;13899;51.174;4.456;2022-12-18T06:58:31;47.60;;;24.33;;
25917;SDS011;13899;51.174;4.456;2022-12-18T07:01:00;51.28;;;25.67;;
25917;SDS011;13899;51.174;4.456;2022-12-18T07:03:27;52.80;;;23.90;;
25917;SDS011;13899;51.174;4.456;2022-12-18T07:05:53;47.85;;;21.20;;
25917;SDS011;13899;51.174;4.456;2022-12-18T07:08:19;55.38;;;24.10;;
25917;SDS011;13899;51.174;4.456;2022-12-18T07:10:45;44.93;;;19.47;;
25917;SDS011;13899;51.174;4.456;2022-12-18T07:13:10;49.23;;;25.27;;
25917;SDS011;13899;51.174;4.456;2022-12-18T07:15:36;33.27;;;18.07;;
25917;SDS011;13899;51.174;4.456;2022-12-18T07:18:01;51.30;;;24.73;;
25917;SDS011;13899;51.174;4.456;2022-12-18T07:20:27;50.50;;;25.17;;
25917;SDS011;13899;51.174;4.456;2022-12-18T07:22:53;47.37;;;24.77;;
25917;SDS011;13899;51.174;4.456;2022-12-18T07:25:18;60.73;;;25.67;;
25917;SDS011;13899;51.174;4.456;2022-12-18T07:27:44;53.37;;;25.97;;
25917;SDS011;13899;51.174;4.456;2022-12-18T07:30:10;40.80;;;19.00;;
25917;SDS011;13899;51.174;4.456;2022-12-18T07:32:36;51.97;;;25.27;;
25917;SDS011;13899;51.174;4.456;2022-12-18T07:35:01;39.43;;;18.47;;
25917;SDS011;13899;51.174;4.456;2022-12-18T07:37:27;51.07;;;25.10;;
25917;SDS011;13899;51.174;4.456;2022-12-18T07:39:53;51.97;;;25.05;;
25917;SDS011;13899;51.174;4.456;2022-12-18T07:42:18;45.47;;;23.90;;
25917;SDS011;13899;51.174;4.456;2022-12-18T07:44:56;49.53;;;23.60;;
25917;SDS011;13899;51.174;4.456;2022-12-18T07:47:26;46.55;;;24.23;;
25917;SDS011;13899;51.174;4.456;2022-12-18T07:49:53;45.75;;;23.60;;
25917;SDS011;13899;51.174;4.456;2022-12-18T07:52:19;48.37;;;25.73;;
25917;SDS011;13899;51.174;4.456;2022-12-18T07:54:45;45.53;;;24.35;;
25917;SDS011;13899;51.174;4.456;2022-12-18T07:57:13;53.78;;;24.70;;
25917;SDS011;13899;51.174;4.456;2022-12-18T07:59:39;43.28;;;19.73;;
25917;SDS011;13899;51.174;4.456;2022-12-18T08:02:05;55.80;;;25.57;;
25917;SDS011;13899;51.174;4.456;2022-12-18T08:04:31;44.60;;;23.10;;
25917;SDS011;13899;51.174;4.456;2022-12-18T08:06:56;34.27;;;17.30;;
25917;SDS011;13899;51.174;4.456;2022-12-18T08:09:22;43.67;;;24.53;;
25917;SDS011;13899;51.174;4.456;2022-12-18T08:11:47;44.60;;;22.60;;
25917;SDS011;13899;51.174;4.456;2022-12-18T08:14:13;32.80;;;18.37;;
25917;SDS011;13899;51.174;4.456;2022-12-18T08:16:39;41.20;;;23.10;;
25917;SDS011;13899;51.174;4.456;2022-12-18T08:19:05;40.57;;;22.70;;
25917;SDS011;13899;51.174;4.456;2022-12-18T08:21:30;41.53;;;21.73;;
25917;SDS011;13899;51.174;4.456;2022-12-18T08:23:57;39.30;;;22.60;;
25917;SDS011;13899;51.174;4.456;2022-12-18T08:26:25;44.78;;;22.40;;
25917;SDS011;13899;51.174;4.456;2022-12-18T08:28:52;42.38;;;23.17;;
25917;SDS011;13899;51.174;4.456;2022-12-18T08:31:19;34.85;;;20.83;;
25917;SDS011;13899;51.174;4.456;2022-12-18T08:33:47;36.03;;;21.52;;
25917;SDS011;13899;51.174;4.456;2022-12-18T08:36:15;38.15;;;21.05;;
25917;SDS011;13899;51.174;4.456;2022-12-18T08:38:40;35.65;;;21.33;;
25917;SDS011;13899;51.174;4.456;2022-12-18T08:41:07;29.47;;;16.73;;
25917;SDS011;13899;51.174;4.456;2022-12-18T08:43:36;39.88;;;20.88;;
25917;SDS011;13899;51.174;4.456;2022-12-18T08:46:21;33.90;;;19.92;;
25917;SDS011;13899;51.174;4.456;2022-12-18T08:48:50;41.22;;;22.17;;
25917;SDS011;13899;51.174;4.456;2022-12-18T08:51:16;34.20;;;20.42;;
25917;SDS011;13899;51.174;4.456;2022-12-18T08:53:43;25.92;;;16.88;;
25917;SDS011;13899;51.174;4.456;2022-12-18T08:56:09;36.70;;;20.55;;
25917;SDS011;13899;51.174;4.456;2022-12-18T08:58:36;36.55;;;20.63;;
25917;SDS011;13899;51.174;4.456;2022-12-18T09:01:06;29.33;;;16.17;;
25917;SDS011;13899;51.174;4.456;2022-12-18T09:03:36;28.40;;;18.80;;
25917;SDS011;13899;51.174;4.456;2022-12-18T09:06:02;32.65;;;20.17;;
25917;SDS011;13899;51.174;4.456;2022-12-18T09:08:28;33.00;;;20.17;;
25917;SDS011;13899;51.174;4.456;2022-12-18T09:10:57;23.13;;;16.10;;
25917;SDS011;13899;51.174;4.456;2022-12-18T09:13:22;33.85;;;19.85;;
25917;SDS011;13899;51.174;4.456;2022-12-18T09:15:50;29.17;;;15.13;;
25917;SDS011;13899;51.174;4.456;2022-12-18T09:18:18;30.60;;;18.52;;
25917;SDS011;13899;51.174;4.456;2022-12-18T09:20:45;32.25;;;18.92;;
25917;SDS011;13899;51.174;4.456;2022-12-18T09:23:11;26.38;;;17.92;;
25917;SDS011;13899;51.174;4.456;2022-12-18T09:25:37;21.10;;;15.32;;
25917;SDS011;13899;51.174;4.456;2022-12-18T09:28:05;20.73;;;13.77;;
25917;SDS011;13899;51.174;4.456;2022-12-18T09:30:40;22.30;;;13.75;;
25917;SDS011;13899;51.174;4.456;2022-12-18T09:33:08;28.17;;;18.35;;
25917;SDS011;13899;51.174;4.456;2022-12-18T09:35:37;33.70;;;19.27;;
25917;SDS011;13899;51.174;4.456;2022-12-18T09:38:04;31.27;;;18.67;;
25917;SDS011;13899;51.174;4.456;2022-12-18T09:40:33;30.48;;;18.95;;
25917;SDS011;13899;51.174;4.456;2022-12-18T09:43:03;24.75;;;18.15;;
25917;SDS011;13899;51.174;4.456;2022-12-18T09:45:40;31.35;;;18.38;;
25917;SDS011;13899;51.174;4.456;2022-12-18T09:48:10;25.15;;;17.55;;
25917;SDS011;13899;51.174;4.456;2022-12-18T09:50:45;26.40;;;17.95;;
25917;SDS011;13899;51.174;4.456;2022-12-18T09:53:14;24.63;;;16.63;;
25917;SDS011;13899;51.174;4.456;2022-12-18T09:55:45;24.25;;;16.30;;
25917;SDS011;13899;51.174;4.456;2022-12-18T10:00:51;30.33;;;17.42;;
25917;SDS011;13899;51.174;4.456;2022-12-18T10:03:18;27.38;;;17.52;;
25917;SDS011;13899;51.174;4.456;2022-12-18T10:08:27;26.83;;;17.65;;
25917;SDS011;13899;51.174;4.456;2022-12-18T10:11:01;28.30;;;17.15;;
25917;SDS011;13899;51.174;4.456;2022-12-18T10:13:45;27.92;;;17.23;;
25917;SDS011;13899;51.174;4.456;2022-12-18T10:21:48;25.10;;;17.45;;
25917;SDS011;13899;51.174;4.456;2022-12-18T10:26:55;22.02;;;16.15;;
25917;SDS011;13899;51.174;4.456;2022-12-18T10:29:34;23.40;;;16.70;;
25917;SDS011;13899;51.174;4.456;2022-12-18T10:32:00;22.73;;;16.83;;
25917;SDS011;13899;51.174;4.456;2022-12-18T10:34:25;20.97;;;13.27;;
25917;SDS011;13899;51.174;4.456;2022-12-18T10:36:51;21.80;;;14.60;;
25917;SDS011;13899;51.174;4.456;2022-12-18T10:39:18;17.67;;;12.43;;
25917;SDS011;13899;51.174;4.456;2022-12-18T10:41:47;21.90;;;15.88;;
25917;SDS011;13899;51.174;4.456;2022-12-18T10:44:21;20.35;;;16.55;;
25917;SDS011;13899;51.174;4.456;2022-12-18T10:46:48;20.52;;;15.85;;
25917;SDS011;13899;51.174;4.456;2022-12-18T10:49:22;20.15;;;16.48;;
25917;SDS011;13899;51.174;4.456;2022-12-18T10:51:51;24.00;;;16.48;;
25917;SDS011;13899;51.174;4.456;2022-12-18T10:54:29;21.40;;;15.75;;
25917;SDS011;13899;51.174;4.456;2022-12-18T10:57:13;28.75;;;16.23;;
25917;SDS011;13899;51.174;4.456;2022-12-18T10:59:56;24.77;;;16.13;;
25917;SDS011;13899;51.174;4.456;2022-12-18T11:02:41;23.20;;;16.17;;
25917;SDS011;13899;51.174;4.456;2022-12-18T11:07:54;23.58;;;15.32;;
25917;SDS011;13899;51.174;4.456;2022-12-18T11:10:22;21.38;;;15.38;;
25917;SDS011;13899;51.174;4.456;2022-12-18T11:12:53;23.50;;;16.52;;
25917;SDS011;13899;51.174;4.456;2022-12-18T11:15:20;19.33;;;17.13;;
25917;SDS011;13899;51.174;4.456;2022-12-18T11:17:51;25.42;;;17.55;;
25917;SDS011;13899;51.174;4.456;2022-12-18T11:20:26;21.73;;;13.65;;
25917;SDS011;13899;51.174;4.456;2022-12-18T11:22:58;22.85;;;16.10;;
25917;SDS011;13899;51.174;4.456;2022-12-18T11:25:29;22.70;;;16.45;;
25917;SDS011;13899;51.174;4.456;2022-12-18T11:28:00;23.92;;;17.02;;
25917;SDS011;13899;51.174;4.456;2022-12-18T11:30:34;21.50;;;16.63;;
25917;SDS011;13899;51.174;4.456;2022-12-18T11:33:05;23.50;;;15.93;;
25917;SDS011;13899;51.174;4.456;2022-12-18T11:40:45;20.42;;;15.60;;
25917;SDS011;13899;51.174;4.456;2022-12-18T11:43:17;21.67;;;16.25;;
25917;SDS011;13899;51.174;4.456;2022-12-18T11:45:52;24.42;;;16.67;;
25917;SDS011;13899;51.174;4.456;2022-12-18T11:51:11;22.02;;;17.40;;
25917;SDS011;13899;51.174;4.456;2022-12-18T11:53:43;22.15;;;16.05;;
25917;SDS011;13899;51.174;4.456;2022-12-18T11:56:29;16.40;;;12.80;;
25917;SDS011;13899;51.174;4.456;2022-12-18T11:59:04;22.10;;;16.40;;
25917;SDS011;13899;51.174;4.456;2022-12-18T12:01:55;32.00;;;16.52;;
25917;SDS011;13899;51.174;4.456;2022-12-18T12:05:05;20.63;;;16.23;;
25917;SDS011;13899;51.174;4.456;2022-12-18T12:08:06;21.95;;;16.73;;
25917;SDS011;13899;51.174;4.456;2022-12-18T12:16:06;22.98;;;16.80;;
25917;SDS011;13899;51.174;4.456;2022-12-18T12:21:59;24.60;;;17.13;;
25917;SDS011;13899;51.174;4.456;2022-12-18T12:35:13;22.83;;;16.80;;
25917;SDS011;13899;51.174;4.456;2022-12-18T12:40:23;21.73;;;17.23;;
25917;SDS011;13899;51.174;4.456;2022-12-18T12:42:55;28.13;;;17.92;;
25917;SDS011;13899;51.174;4.456;2022-12-18T12:45:51;24.20;;;16.90;;
25917;SDS011;13899;51.174;4.456;2022-12-18T12:51:21;25.00;;;16.90;;
25917;SDS011;13899;51.174;4.456;2022-12-18T12:53:49;22.45;;;16.65;;
25917;SDS011;13899;51.174;4.456;2022-12-18T12:56:17;22.48;;;17.48;;
25917;SDS011;13899;51.174;4.456;2022-12-18T13:04:52;23.80;;;16.88;;
25917;SDS011;13899;51.174;4.456;2022-12-18T13:07:28;26.17;;;18.35;;
25917;SDS011;13899;51.174;4.456;2022-12-18T13:20:34;23.83;;;17.53;;
25917;SDS011;13899;51.174;4.456;2022-12-18T13:23:18;26.38;;;16.80;;
25917;SDS011;13899;51.174;4.456;2022-12-18T13:25:47;22.73;;;17.77;;
25917;SDS011;13899;51.174;4.456;2022-12-18T13:31:01;20.08;;;16.58;;
25917;SDS011;13899;51.174;4.456;2022-12-18T13:36:09;23.25;;;16.25;;
25917;SDS011;13899;51.174;4.456;2022-12-18T13:38:39;25.15;;;17.30;;
25917;SDS011;13899;51.174;4.456;2022-12-18T13:43:47;24.13;;;17.55;;
25917;SDS011;13899;51.174;4.456;2022-12-18T13:48:49;26.80;;;18.33;;
25917;SDS011;13899;51.174;4.456;2022-12-18T13:51:16;29.50;;;18.58;;
25917;SDS011;13899;51.174;4.456;2022-12-18T13:53:52;35.90;;;19.10;;
25917;SDS011;13899;51.174;4.456;2022-12-18T13:56:28;23.15;;;17.65;;
25917;SDS011;13899;51.174;4.456;2022-12-18T13:59:06;25.33;;;17.88;;
25917;SDS011;13899;51.174;4.456;2022-12-18T14:01:35;27.98;;;18.70;;
25917;SDS011;13899;51.174;4.456;2022-12-18T14:04:10;28.03;;;18.60;;
25917;SDS011;13899;51.174;4.456;2022-12-18T14:06:47;26.10;;;18.83;;
25917;SDS011;13899;51.174;4.456;2022-12-18T14:09:15;25.02;;;18.83;;
25917;SDS011;13899;51.174;4.456;2022-12-18T14:11:49;27.13;;;18.90;;
25917;SDS011;13899;51.174;4.456;2022-12-18T14:16:42;26.27;;;18.52;;
25917;SDS011;13899;51.174;4.456;2022-12-18T14:19:11;19.57;;;14.67;;
25917;SDS011;13899;51.174;4.456;2022-12-18T14:21:45;26.00;;;18.98;;
25917;SDS011;13899;51.174;4.456;2022-12-18T14:24:16;24.90;;;18.55;;
25917;SDS011;13899;51.174;4.456;2022-12-18T14:26:46;32.28;;;20.48;;
25917;SDS011;13899;51.174;4.456;2022-12-18T14:29:46;29.90;;;20.50;;
25917;SDS011;13899;51.174;4.456;2022-12-18T14:32:11;26.05;;;19.40;;
25917;SDS011;13899;51.174;4.456;2022-12-18T14:34:41;31.15;;;20.42;;
25917;SDS011;13899;51.174;4.456;2022-12-18T14:37:25;26.48;;;19.38;;
25917;SDS011;13899;51.174;4.456;2022-12-18T14:39:55;25.00;;;19.88;;
25917;SDS011;13899;51.174;4.456;2022-12-18T14:42:23;28.25;;;19.95;;
25917;SDS011;13899;51.174;4.456;2022-12-18T14:45:17;29.75;;;19.90;;
25917;SDS011;13899;51.174;4.456;2022-12-18T14:47:57;33.28;;;21.52;;
25917;SDS011;13899;51.174;4.456;2022-12-18T14:50:23;25.35;;;19.80;;
25917;SDS011;13899;51.174;4.456;2022-12-18T14:52:49;32.07;;;21.00;;
25917;SDS011;13899;51.174;4.456;2022-12-18T14:55:18;27.63;;;19.38;;
25917;SDS011;13899;51.174;4.456;2022-12-18T14:57:46;32.03;;;21.17;;
25917;SDS011;13899;51.174;4.456;2022-12-18T15:00:18;35.10;;;21.15;;
25917;SDS011;13899;51.174;4.456;2022-12-18T15:02:47;29.73;;;20.13;;
25917;SDS011;13899;51.174;4.456;2022-12-18T15:07:50;31.75;;;20.75;;
25917;SDS011;13899;51.174;4.456;2022-12-18T15:18:02;28.13;;;21.13;;
25917;SDS011;13899;51.174;4.456;2022-12-18T15:25:48;33.88;;;21.33;;
25917;SDS011;13899;51.174;4.456;2022-12-18T15:28:26;29.35;;;21.20;;
25917;SDS011;13899;51.174;4.456;2022-12-18T15:30:59;31.85;;;21.00;;
25917;SDS011;13899;51.174;4.456;2022-12-18T15:33:30;32.50;;;21.92;;
25917;SDS011;13899;51.174;4.456;2022-12-18T15:35:59;32.47;;;22.23;;
25917;SDS011;13899;51.174;4.456;2022-12-18T15:38:26;33.88;;;21.20;;
25917;SDS011;13899;51.174;4.456;2022-12-18T15:40:53;38.10;;;21.92;;
25917;SDS011;13899;51.174;4.456;2022-12-18T15:43:20;33.85;;;20.08;;
25917;SDS011;13899;51.174;4.456;2022-12-18T15:46:00;32.00;;;21.15;;
25917;SDS011;13899;51.174;4.456;2022-12-18T15:48:32;36.03;;;21.77;;
25917;SDS011;13899;51.174;4.456;2022-12-18T15:50:59;31.63;;;22.02;;
25917;SDS011;13899;51.174;4.456;2022-12-18T15:55:55;32.30;;;21.15;;
25917;SDS011;13899;51.174;4.456;2022-12-18T15:58:39;37.08;;;22.17;;
25917;SDS011;13899;51.174;4.456;2022-12-18T16:01:04;34.13;;;22.73;;
25917;SDS011;13899;51.174;4.456;2022-12-18T16:03:32;31.17;;;20.40;;
25917;SDS011;13899;51.174;4.456;2022-12-18T16:05:58;27.33;;;18.40;;
25917;SDS011;13899;51.174;4.456;2022-12-18T16:08:25;33.08;;;21.52;;
25917;SDS011;13899;51.174;4.456;2022-12-18T16:10:50;35.17;;;22.03;;
25917;SDS011;13899;51.174;4.456;2022-12-18T16:13:16;37.97;;;22.20;;
25917;SDS011;13899;51.174;4.456;2022-12-18T16:15:44;36.42;;;21.20;;
25917;SDS011;13899;51.174;4.456;2022-12-18T16:18:10;38.03;;;22.30;;
25917;SDS011;13899;51.174;4.456;2022-12-18T16:20:35;45.37;;;20.53;;
25917;SDS011;13899;51.174;4.456;2022-12-18T16:23:02;35.80;;;20.85;;
25917;SDS011;13899;51.174;4.456;2022-12-18T16:25:28;33.93;;;20.17;;
25917;SDS011;13899;51.174;4.456;2022-12-18T16:27:54;31.20;;;18.37;;
25917;SDS011;13899;51.174;4.456;2022-12-18T16:30:22;35.60;;;21.52;;
25917;SDS011;13899;51.174;4.456;2022-12-18T16:32:49;37.22;;;22.90;;
25917;SDS011;13899;51.174;4.456;2022-12-18T16:35:15;31.17;;;17.33;;
25917;SDS011;13899;51.174;4.456;2022-12-18T16:40:09;34.72;;;20.00;;
25917;SDS011;13899;51.174;4.456;2022-12-18T16:42:37;41.65;;;22.58;;
25917;SDS011;13899;51.174;4.456;2022-12-18T16:45:04;37.75;;;22.52;;
25917;SDS011;13899;51.174;4.456;2022-12-18T16:47:31;45.65;;;23.10;;
25917;SDS011;13899;51.174;4.456;2022-12-18T16:49:57;36.15;;;23.08;;